Time;durP1;ratioP1;P1;durP2;ratioP2;P2;SDS_P1;SDS_P2;PMS_P1;PMS_P2;Temp;Humidity;BMP_temperature;BMP_pressure;BME280_temperature;BME280_humidity;BME280_pressure;Samples;Min_cycle;Max_cycle;Signal;HPM_P1;HPM_P2
2021/12/17 00:00:17;;;;;;;0.20;0.20;;;;;;;20.29;44.50;103518.72;5124554;28;20046;-36
2021/12/17 00:03:21;;;;;;;0.20;0.20;;;;;;;20.29;44.32;103523.38;5125408;27;20066;-36
2021/12/17 00:08:29;;;;;;;0.20;0.20;;;;;;;20.28;44.50;103525.31;5161751;27;20214;-36
2021/12/17 00:10:55;;;;;;;0.20;0.20;;;;;;;20.28;44.26;103525.31;5159309;27;20046;-36
2021/12/17 00:13:20;;;;;;;0.20;0.20;;;;;;;20.28;44.40;103533.59;5159778;27;20046;-37
2021/12/17 00:15:47;;;;;;;0.10;0.10;;;;;;;20.26;44.24;103533.00;5124994;27;20035;-37
2021/12/17 00:18:21;;;;;;;0.20;0.20;;;;;;;20.28;44.42;103536.38;5150094;27;20129;-37
2021/12/17 00:40:13;;;;;;;0.20;0.20;;;;;;;20.27;44.45;103528.31;5135184;27;20039;-36
2021/12/17 00:40:27;;;;;;;0.20;0.20;;;;;;;20.26;44.25;103510.00;5122090;27;20141;-37
2021/12/17 00:48:36;;;;;;;0.20;0.20;;;;;;;20.25;44.57;103509.16;5109661;27;20031;-36
2021/12/17 00:53:50;;;;;;;0.20;0.20;;;;;;;20.25;44.43;103509.16;5163018;27;20210;-36
2021/12/17 00:56:16;;;;;;;0.15;0.15;;;;;;;20.25;44.34;103491.69;5147771;27;20075;-36
2021/12/17 00:58:42;;;;;;;0.20;0.20;;;;;;;20.25;44.25;103498.09;5146450;27;20458;-36
2021/12/17 01:01:08;;;;;;;0.10;0.10;;;;;;;20.25;44.51;103503.63;5146978;27;20377;-37
2021/12/17 01:03:34;;;;;;;0.13;0.13;;;;;;;20.24;44.58;103499.16;5127754;27;20043;-35
2021/12/17 01:06:00;;;;;;;0.17;0.17;;;;;;;20.25;44.44;103497.22;5131468;27;20043;-35
2021/12/17 01:08:26;;;;;;;0.20;0.20;;;;;;;20.23;44.40;103483.63;5149669;27;20054;-35
2021/12/17 01:10:54;;;;;;;0.20;0.20;;;;;;;20.24;44.34;103488.09;5148373;27;20047;-35
2021/12/17 01:13:20;;;;;;;0.20;0.20;;;;;;;20.24;44.48;103481.72;5129596;27;20047;-35
2021/12/17 01:15:46;;;;;;;0.20;0.20;;;;;;;20.24;44.51;103484.47;5129557;27;20500;-36
2021/12/17 01:18:16;;;;;;;0.20;0.20;;;;;;;20.23;44.57;103474.47;5129957;27;20175;-35
2021/12/17 01:21:05;;;;;;;0.20;0.20;;;;;;;20.24;44.13;103479.78;5111396;27;20042;-35
2021/12/17 01:40:40;;;;;;;0.20;0.20;;;;;;;20.22;44.49;103478.34;5122046;27;20043;-35
2021/12/17 01:42:28;;;;;;;0.20;0.20;;;;;;;20.22;44.61;103483.88;5130441;27;20046;-35
2021/12/17 01:44:53;;;;;;;0.20;0.20;;;;;;;20.22;44.28;103478.34;5144514;27;20043;-35
2021/12/17 01:47:19;;;;;;;0.20;0.20;;;;;;;20.22;44.45;103486.63;5128028;27;20093;-35
2021/12/17 02:00:43;;;;;;;0.20;0.20;;;;;;;20.21;44.45;103488.56;5115551;27;20064;-35
2021/12/17 02:03:11;;;;;;;0.20;0.20;;;;;;;20.22;44.52;103483.88;5130762;27;20071;-35
2021/12/17 02:05:38;;;;;;;0.20;0.20;;;;;;;20.22;44.38;103494.94;5149665;27;20047;-35
2021/12/17 02:08:04;;;;;;;0.20;0.20;;;;;;;20.21;44.72;103499.63;5148319;27;20045;-36
2021/12/17 02:30:23;;;;;;;0.20;0.20;;;;;;;20.20;44.55;103502.59;5133966;27;20458;-35
2021/12/17 02:32:38;;;;;;;0.20;0.20;;;;;;;20.20;44.60;103497.06;5115467;27;20042;-36
2021/12/17 02:35:23;;;;;;;0.20;0.20;;;;;;;20.19;44.60;103493.47;5136756;27;20047;-35
2021/12/17 02:37:51;;;;;;;0.20;0.20;;;;;;;20.20;44.24;103495.13;5146476;27;20047;-36
2021/12/17 02:42:32;;;;;;;0.20;0.20;;;;;;;20.20;44.57;103500.69;5125387;27;20038;-36
2021/12/17 02:45:49;;;;;;;0.20;0.20;;;;;;;20.19;44.43;103503.69;5101366;27;20047;-36
2021/12/17 02:48:18;;;;;;;0.20;0.20;;;;;;;20.19;44.57;103504.53;5108953;27;20433;-36
2021/12/17 02:50:50;;;;;;;0.15;0.15;;;;;;;20.20;44.29;103495.13;5112871;27;20047;-35
2021/12/17 02:53:17;;;;;;;0.20;0.20;;;;;;;20.18;44.35;103505.59;5106411;27;20397;-36
2021/12/17 02:55:46;;;;;;;0.20;0.20;;;;;;;20.19;44.52;103500.91;5136492;27;20134;-36
2021/12/17 02:58:12;;;;;;;0.20;0.20;;;;;;;20.20;44.81;103505.38;5129585;27;20047;-36
2021/12/17 03:00:40;;;;;;;0.20;0.20;;;;;;;20.19;44.33;103506.44;5092539;27;20050;-37
2021/12/17 03:03:07;;;;;;;0.20;0.20;;;;;;;20.19;44.47;103503.69;5126762;27;20051;-36
2021/12/17 03:05:34;;;;;;;0.20;0.20;;;;;;;20.19;44.50;103498.16;5116640;28;20043;-37
2021/12/17 03:08:00;;;;;;;0.20;0.20;;;;;;;20.20;44.68;103497.06;5113600;27;20043;-37
2021/12/17 03:10:26;;;;;;;0.20;0.20;;;;;;;20.19;44.51;103498.16;5114583;27;20498;-38
2021/12/17 03:12:58;;;;;;;0.20;0.20;;;;;;;20.19;44.42;103489.84;5133255;27;20446;-37
2021/12/17 03:18:58;;;;;;;0.20;0.20;;;;;;;20.18;44.56;103490.94;5175739;27;20245;-37
2021/12/17 03:23:43;;;;;;;0.20;0.20;;;;;;;20.17;44.31;103497.53;5122748;27;20046;-37
2021/12/17 03:26:13;;;;;;;0.20;0.20;;;;;;;20.18;44.56;103496.47;5157380;27;20050;-36
2021/12/17 03:28:42;;;;;;;0.20;0.20;;;;;;;20.19;44.38;103499.00;5156289;27;20046;-37
2021/12/17 03:31:09;;;;;;;0.20;0.20;;;;;;;20.16;44.48;103493.91;5158281;27;20102;-36
2021/12/17 03:33:36;;;;;;;0.20;0.20;;;;;;;20.18;44.33;103488.16;5159534;27;20045;-35
2021/12/17 03:36:02;;;;;;;0.20;0.20;;;;;;;20.18;44.33;103490.94;5139153;27;20057;-36
2021/12/17 03:38:28;;;;;;;0.20;0.20;;;;;;;20.17;44.42;103490.09;5136206;27;20063;-37
2021/12/17 03:41:05;;;;;;;0.20;0.20;;;;;;;20.19;44.65;103490.69;5154655;27;20137;-36
2021/12/17 03:43:32;;;;;;;0.20;0.20;;;;;;;20.17;44.49;103487.31;5159031;27;20477;-36
2021/12/17 03:45:58;;;;;;;0.20;0.20;;;;;;;20.17;44.28;103487.31;5154308;27;20043;-36
2021/12/17 03:48:24;;;;;;;0.20;0.20;;;;;;;20.17;44.38;103484.53;5155972;27;20039;-37
2021/12/17 03:50:50;;;;;;;0.20;0.20;;;;;;;20.18;44.56;103496.47;5154279;27;20085;-36
2021/12/17 03:53:15;;;;;;;0.20;0.20;;;;;;;20.18;44.35;103491.78;5152537;27;20054;-36
2021/12/17 03:55:41;;;;;;;0.20;0.20;;;;;;;20.17;44.49;103486.47;5156694;27;20054;-37
2021/12/17 03:58:07;;;;;;;0.20;0.20;;;;;;;20.17;44.34;103498.38;5161971;27;20057;-36
2021/12/17 04:00:33;;;;;;;0.20;0.20;;;;;;;20.17;44.65;103495.63;5157968;27;20053;-37
2021/12/17 04:02:59;;;;;;;0.20;0.20;;;;;;;20.18;44.38;103490.94;5134223;27;20417;-37
2021/12/17 04:05:25;;;;;;;0.20;0.20;;;;;;;20.18;44.65;103485.38;5154933;27;20043;-37
2021/12/17 04:07:50;;;;;;;0.20;0.20;;;;;;;20.16;44.50;103491.13;5157310;27;20378;-36
2021/12/17 04:10:18;;;;;;;0.20;0.20;;;;;;;20.16;44.40;103485.59;5153561;27;20047;-41
2021/12/17 04:15:35;;;;;;;0.20;0.20;;;;;;;20.17;44.38;103489.25;5135532;27;20035;-36
2021/12/17 04:18:05;;;;;;;0.20;0.20;;;;;;;20.17;44.32;103478.16;5144596;27;20047;-38
2021/12/17 04:20:31;;;;;;;0.20;0.20;;;;;;;20.16;44.87;103479.22;5123652;27;20047;-36
2021/12/17 04:22:56;;;;;;;0.20;0.20;;;;;;;20.16;44.46;103482.84;5116337;27;20382;-39
2021/12/17 04:25:23;;;;;;;0.20;0.20;;;;;;;20.15;44.45;103483.91;5141864;27;20045;-37
2021/12/17 04:27:48;;;;;;;0.20;0.20;;;;;;;20.17;44.52;103486.47;5134934;27;20689;-38
2021/12/17 04:30:14;;;;;;;0.20;0.20;;;;;;;20.16;44.67;103485.59;5111660;27;20474;-37
2021/12/17 04:32:40;;;;;;;0.20;0.20;;;;;;;20.16;44.88;103484.75;5125839;27;20043;-37
2021/12/17 04:35:06;;;;;;;0.20;0.20;;;;;;;20.16;44.37;103484.75;5119433;27;20125;-37
2021/12/17 04:37:33;;;;;;;0.20;0.20;;;;;;;20.17;44.73;103489.25;5122832;27;20043;-36
2021/12/17 04:39:58;;;;;;;0.20;0.20;;;;;;;20.16;44.74;103495.81;5125189;27;20047;-36
2021/12/17 04:42:36;;;;;;;0.20;0.20;;;;;;;20.16;44.37;103490.28;5113881;27;20047;-36
2021/12/17 04:45:02;;;;;;;0.20;0.20;;;;;;;20.16;44.29;103496.66;5122646;27;20048;-37
2021/12/17 04:58:30;;;;;;;0.20;0.20;;;;;;;20.14;44.46;103496.06;5114263;27;20459;-37
2021/12/17 05:01:01;;;;;;;0.20;0.20;;;;;;;20.16;44.36;103487.53;5106602;27;20056;-36
2021/12/17 05:03:26;;;;;;;;;;;;;;;20.14;44.72;103490.53;5127989;27;20043;-37
2021/12/17 05:05:52;;;;;;;0.20;0.20;;;;;;;20.15;44.42;103488.59;5130217;27;19942;-37
2021/12/17 05:08:21;;;;;;;0.20;0.20;;;;;;;20.14;44.73;103498.81;5121936;27;20055;-39
2021/12/17 05:18:15;;;;;;;0.20;0.20;;;;;;;20.15;44.58;103506.03;5113713;27;20042;-39
2021/12/17 05:19:15;;;;;;;0.15;0.15;;;;;;;20.15;44.75;103494.13;5106542;27;20543;-37
2021/12/17 05:21:41;;;;;;;0.20;0.20;;;;;;;20.14;44.69;103493.28;5121297;27;20499;-35
2021/12/17 05:24:06;;;;;;;0.20;0.20;;;;;;;20.14;44.66;103490.53;5124807;27;20039;-36
2021/12/17 05:26:32;;;;;;;0.20;0.20;;;;;;;20.15;44.45;103494.97;5104330;27;20178;-36
2021/12/17 05:28:58;;;;;;;0.20;0.20;;;;;;;20.15;44.54;103488.59;5127581;27;20057;-35
2021/12/17 05:31:25;;;;;;;0.10;0.10;;;;;;;20.15;44.38;103500.50;5126075;27;20548;-35
2021/12/17 05:33:52;;;;;;;0.20;0.20;;;;;;;20.16;44.58;103495.81;5125389;27;20092;-35
2021/12/17 05:36:18;;;;;;;0.15;0.15;;;;;;;20.15;44.74;103489.44;5104757;27;20043;-36
2021/12/17 05:38:44;;;;;;;0.20;0.20;;;;;;;20.15;44.65;103496.91;5127090;27;20056;-35
2021/12/17 05:41:10;;;;;;;0.20;0.20;;;;;;;20.15;44.40;103492.22;5122983;27;20043;-35
2021/12/17 05:43:37;;;;;;;0.20;0.20;;;;;;;20.15;44.72;103492.22;5123280;27;20035;-35
2021/12/17 05:46:10;;;;;;;0.13;0.13;;;;;;;20.16;44.34;103487.53;5129647;27;20055;-36
2021/12/17 05:48:36;;;;;;;0.20;0.20;;;;;;;20.16;44.53;103487.53;5122425;27;20095;-35
2021/12/17 05:51:04;;;;;;;0.20;0.20;;;;;;;20.14;44.72;103496.06;5132484;27;20035;-36
2021/12/17 05:53:30;;;;;;;0.10;0.10;;;;;;;20.14;44.49;103498.81;5110125;27;20300;-36
2021/12/17 05:55:56;;;;;;;0.20;0.20;;;;;;;20.14;44.55;103498.81;5120743;27;20203;-36
2021/12/17 05:58:25;;;;;;;0.20;0.20;;;;;;;20.15;44.72;103496.91;5120424;27;20039;-36
2021/12/17 06:00:51;;;;;;;0.20;0.20;;;;;;;20.12;44.95;103495.44;5104996;27;20047;-42
2021/12/17 06:03:18;;;;;;;0.20;0.20;;;;;;;20.14;45.51;103490.53;5111262;27;20102;-36
2021/12/17 06:05:44;;;;;;;0.15;0.15;;;;;;;20.19;45.17;103485.16;5108990;28;20240;-35
2021/12/17 06:08:10;;;;;;;0.20;0.20;;;;;;;20.20;44.91;103494.31;5118620;27;20536;-37
2021/12/17 06:10:36;;;;;;;0.20;0.20;;;;;;;20.19;45.31;103501.75;5106811;27;20049;-35
2021/12/17 06:13:01;;;;;;;0.20;0.20;;;;;;;20.19;45.00;103499.00;5124576;27;20084;-38
2021/12/17 06:15:27;;;;;;;0.20;0.20;;;;;;;20.20;45.13;103486.00;5104241;27;20070;-36
2021/12/17 06:17:54;;;;;;;0.20;0.20;;;;;;;20.21;45.29;103487.72;5119858;27;20085;-37
2021/12/17 06:20:20;;;;;;;0.20;0.20;;;;;;;20.21;44.97;103491.31;5103167;27;20050;-37
2021/12/17 06:22:47;;;;;;;0.20;0.20;;;;;;;20.25;45.03;103494.47;5104966;28;20039;-40
2021/12/17 06:25:13;;;;;;;0.20;0.20;;;;;;;20.35;45.80;103494.81;5126411;27;20039;-36
2021/12/17 06:27:40;;;;;;;0.20;0.20;;;;;;;20.37;45.01;103497.34;5099580;28;20482;-35
2021/12/17 06:30:08;;;;;;;0.20;0.20;;;;;;;20.34;45.45;103495.06;5122037;27;20052;-36
2021/12/17 06:32:34;;;;;;;0.10;0.10;;;;;;;20.34;45.45;103495.06;5123703;27;20051;-37
2021/12/17 06:35:00;;;;;;;0.10;0.10;;;;;;;20.34;45.39;103495.06;5122472;27;20054;-36
2021/12/17 06:37:25;;;;;;;0.10;0.10;;;;;;;20.34;45.15;103497.81;5118051;27;20043;-36
2021/12/17 06:39:51;;;;;;;0.17;0.17;;;;;;;20.35;45.15;103499.50;5118562;27;20049;-36
2021/12/17 06:42:17;;;;;;;0.10;0.10;;;;;;;20.37;45.31;103497.34;5126096;27;20134;-37
2021/12/17 06:44:45;;;;;;;0.10;0.10;;;;;;;20.37;45.00;103486.28;5120100;27;20040;-39
2021/12/17 06:47:24;;;;;;;0.20;0.20;;;;;;;20.37;45.21;103489.88;5113394;27;20051;-43
2021/12/17 06:49:57;;;;;;;0.10;0.10;;;;;;;20.39;45.17;103486.91;5121218;27;20313;-40
2021/12/17 06:55:33;;;;;;;0.20;0.20;;;;;;;20.40;45.03;103486.66;5100641;27;20051;-38
2021/12/17 06:58:45;;;;;;;0.20;0.20;;;;;;;20.41;44.84;103491.13;5101024;27;20051;-38
2021/12/17 07:06:26;;;;;;;0.20;0.20;;;;;;;20.43;44.76;103504.75;5098812;27;20162;-38
2021/12/17 07:20:31;;;;;;;0.20;0.20;;;;;;;20.53;44.81;103488.50;5091748;27;20047;-38
2021/12/17 07:33:33;;;;;;;0.20;0.20;;;;;;;20.53;44.18;103499.56;5134175;27;21090;-38
2021/12/17 07:36:07;;;;;;;0.10;0.10;;;;;;;20.69;44.72;103496.22;5157333;27;20125;-36
2021/12/17 07:41:03;;;;;;;0.10;0.10;;;;;;;20.71;44.71;103495.97;5155417;27;20041;-37
2021/12/17 07:43:37;;;;;;;0.20;0.20;;;;;;;20.71;44.62;103491.28;5151203;27;20046;-39
2021/12/17 07:46:05;;;;;;;0.20;0.20;;;;;;;20.72;44.71;103500.44;5131227;27;20538;-37
2021/12/17 07:48:30;;;;;;;0.20;0.20;;;;;;;20.72;44.41;103500.44;5150171;27;20047;-38
2021/12/17 07:50:57;;;;;;;0.10;0.10;;;;;;;20.73;44.68;103499.38;5150133;27;20046;-41
2021/12/17 07:53:22;;;;;;;0.10;0.10;;;;;;;20.63;43.97;103502.66;5129498;27;20553;-41
2021/12/17 07:55:48;;;;;;;0.20;0.20;;;;;;;20.75;44.33;103503.59;5150292;27;20054;-38
2021/12/17 07:58:14;;;;;;;0.20;0.20;;;;;;;20.78;44.34;103505.06;5129111;27;20050;-41
2021/12/17 08:00:40;;;;;;;0.20;0.20;;;;;;;20.76;44.59;103510.81;5125834;27;20051;-37
2021/12/17 08:03:06;;;;;;;0.20;0.20;;;;;;;20.76;44.20;103509.97;5145800;27;20050;-39
2021/12/17 08:05:32;;;;;;;0.20;0.20;;;;;;;20.77;44.31;103522.78;5146817;27;20042;-36
2021/12/17 08:07:57;;;;;;;0.20;0.20;;;;;;;20.78;44.42;103522.53;5144375;27;20149;-40
2021/12/17 08:10:23;;;;;;;0.20;0.20;;;;;;;20.79;44.30;103532.53;5124298;27;20161;-38
2021/12/17 08:12:53;;;;;;;0.10;0.10;;;;;;;20.79;44.38;103528.91;5126575;27;20049;-37
2021/12/17 08:15:22;;;;;;;0.10;0.10;;;;;;;20.80;44.19;103525.06;5146193;27;20051;-37
2021/12/17 08:18:20;;;;;;;0.10;0.10;;;;;;;20.80;44.39;103536.97;5146523;27;20467;-37
2021/12/17 08:28:53;;;;;;;0.10;0.10;;;;;;;20.82;44.04;103542.31;5153919;27;20218;-35
2021/12/17 08:31:19;;;;;;;0.10;0.10;;;;;;;20.83;44.09;103530.16;5137845;27;20043;-35
2021/12/17 08:33:45;;;;;;;0.10;0.10;;;;;;;20.83;43.80;103544.00;5132526;27;20303;-37
2021/12/17 08:36:12;;;;;;;0.20;0.20;;;;;;;20.84;44.10;103550.38;5133442;27;20051;-38
2021/12/17 08:38:37;;;;;;;0.20;0.20;;;;;;;20.85;44.04;103552.06;5093007;27;20505;-38
2021/12/17 08:41:04;;;;;;;0.20;0.20;;;;;;;20.85;43.99;103558.44;5132527;27;20039;-37
2021/12/17 08:43:30;;;;;;;0.10;0.10;;;;;;;20.85;44.13;103557.59;5132042;27;20370;-38
2021/12/17 08:45:56;;;;;;;0.10;0.10;;;;;;;20.85;43.98;103560.38;5134523;27;20055;-37
2021/12/17 08:48:21;;;;;;;0.20;0.20;;;;;;;20.85;44.06;103563.16;5134762;27;20066;-39
2021/12/17 08:50:47;;;;;;;0.20;0.20;;;;;;;20.83;44.00;103563.38;5136017;27;20038;-41
2021/12/17 08:53:13;;;;;;;0.20;0.20;;;;;;;20.83;44.02;103570.84;5125121;27;20047;-39
2021/12/17 08:55:39;;;;;;;0.20;0.20;;;;;;;20.83;44.09;103571.69;5128288;27;20053;-37
2021/12/17 08:58:04;;;;;;;0.10;0.10;;;;;;;20.82;43.89;103572.78;5129702;27;20179;-39
2021/12/17 09:00:30;;;;;;;0.10;0.10;;;;;;;20.82;44.08;103571.94;5135541;27;20592;-39
2021/12/17 09:02:59;;;;;;;0.20;0.20;;;;;;;20.81;44.02;103559.97;5113727;27;20082;-39
2021/12/17 09:05:26;;;;;;;0.20;0.20;;;;;;;20.80;43.97;103569.38;5104949;27;20092;-35
2021/12/17 09:07:52;;;;;;;0.20;0.20;;;;;;;20.80;44.11;103566.59;5112999;27;20114;-38
2021/12/17 09:10:21;;;;;;;0.20;0.20;;;;;;;20.80;43.83;103569.38;5125859;27;20553;-35
2021/12/17 09:12:48;;;;;;;0.20;0.20;;;;;;;20.48;44.33;103561.16;5128532;27;20477;-39
2021/12/17 09:15:14;;;;;;;0.20;0.20;;;;;;;20.70;44.20;103569.06;5109670;27;20189;-41
2021/12/17 09:17:40;;;;;;;0.17;0.17;;;;;;;20.77;44.15;103575.38;5127098;27;20074;-36
2021/12/17 09:20:07;;;;;;;0.13;0.13;;;;;;;20.78;44.05;103582.63;5109565;27;20050;-38
2021/12/17 09:22:33;;;;;;;0.20;0.20;;;;;;;20.78;43.90;103582.63;5132089;27;21183;-39
2021/12/17 09:24:59;;;;;;;0.20;0.20;;;;;;;20.78;44.05;103580.69;5127753;27;20131;-38
2021/12/17 09:27:24;;;;;;;0.20;0.20;;;;;;;20.79;44.06;103573.22;5134107;27;20045;-39
2021/12/17 09:29:50;;;;;;;0.20;0.20;;;;;;;20.76;43.83;103580.06;5134360;27;20061;-36
2021/12/17 09:32:16;;;;;;;0.20;0.20;;;;;;;20.78;43.91;103580.69;5134691;27;20051;-45
2021/12/17 09:34:41;;;;;;;0.20;0.20;;;;;;;20.67;44.62;103583.34;5128399;27;20273;-45
2021/12/17 09:37:07;;;;;;;0.20;0.20;;;;;;;20.79;44.36;103587.06;5127514;27;20486;-41
2021/12/17 09:39:33;;;;;;;0.20;0.20;;;;;;;20.87;44.10;103592.31;5118879;27;20043;-41
2021/12/17 09:41:59;;;;;;;0.20;0.20;;;;;;;20.90;43.95;103586.34;5120057;27;20035;-40
2021/12/17 09:44:25;;;;;;;0.17;0.17;;;;;;;20.90;43.95;103589.09;5094409;28;20550;-44
2021/12/17 09:46:51;;;;;;;0.20;0.20;;;;;;;20.91;44.02;103585.25;5119614;28;20049;-42
2021/12/17 09:49:18;;;;;;;0.20;0.20;;;;;;;20.93;43.92;103585.84;5102193;28;20493;-42
2021/12/17 09:51:43;;;;;;;0.20;0.20;;;;;;;20.94;43.67;103586.69;5103430;28;20043;-40
2021/12/17 09:54:10;;;;;;;0.20;0.20;;;;;;;20.93;44.05;103596.94;5096639;28;20058;-42
2021/12/17 09:56:36;;;;;;;0.20;0.20;;;;;;;20.93;43.74;103596.94;5075936;28;20095;-40
2021/12/17 09:59:02;;;;;;;0.17;0.17;;;;;;;20.93;43.81;103587.78;5121377;28;20047;-42
2021/12/17 10:01:27;;;;;;;0.10;0.10;;;;;;;20.93;43.87;103596.09;5103448;28;20043;-44
2021/12/17 10:04:15;;;;;;;0.20;0.20;;;;;;;20.93;43.66;103585.84;5114203;27;20043;-42
2021/12/17 10:06:41;;;;;;;0.10;0.10;;;;;;;20.94;43.65;103584.81;5097645;28;20058;-42
2021/12/17 10:09:07;;;;;;;0.20;0.20;;;;;;;20.94;43.53;103590.34;5115200;28;20620;-41
2021/12/17 10:11:33;;;;;;;0.10;0.10;;;;;;;20.94;43.85;103587.56;5117944;27;20067;-43
2021/12/17 10:14:19;;;;;;;0.20;0.20;;;;;;;20.95;43.82;103588.41;5116364;27;20842;-43
2021/12/17 10:16:45;;;;;;;0.13;0.13;;;;;;;20.94;43.92;103584.81;5096963;27;20036;-44
2021/12/17 10:19:10;;;;;;;0.20;0.20;;;;;;;20.95;43.59;103582.88;5107626;27;20063;-41
2021/12/17 10:21:44;;;;;;;0.20;0.20;;;;;;;20.95;43.69;103589.25;5091861;28;20076;-42
2021/12/17 10:24:20;;;;;;;0.20;0.20;;;;;;;20.95;43.86;103591.19;5104852;27;20051;-43
2021/12/17 10:26:46;;;;;;;0.10;0.10;;;;;;;20.95;43.70;103592.03;5107269;27;20546;-41
2021/12/17 10:29:19;;;;;;;0.10;0.10;;;;;;;20.97;43.72;103594.56;5107393;27;20050;-41
2021/12/17 10:31:55;;;;;;;0.10;0.10;;;;;;;20.96;43.79;103595.66;5104676;27;20050;-42
2021/12/17 10:34:20;;;;;;;0.20;0.20;;;;;;;20.96;43.80;103602.03;5102372;27;20054;-41
2021/12/17 10:36:46;;;;;;;0.15;0.15;;;;;;;20.97;43.57;103605.66;5105704;27;20052;-42
2021/12/17 10:39:25;;;;;;;0.10;0.10;;;;;;;20.97;43.74;103600.09;5103397;27;20509;-42
2021/12/17 10:41:51;;;;;;;0.20;0.20;;;;;;;20.96;43.51;103593.72;5089944;28;20142;-41
2021/12/17 10:44:20;;;;;;;0.20;0.20;;;;;;;20.97;43.58;103600.09;5101128;27;20421;-44
2021/12/17 10:47:14;;;;;;;0.10;0.10;;;;;;;20.96;43.78;103587.34;5080471;28;20255;-43
2021/12/17 10:49:57;;;;;;;0.20;0.20;;;;;;;20.95;43.44;103583.72;5089400;27;20332;-42
2021/12/17 10:52:31;;;;;;;0.10;0.10;;;;;;;20.95;43.59;103588.41;5095733;28;20175;-44
2021/12/17 10:55:15;;;;;;;0.10;0.10;;;;;;;20.95;43.69;103582.88;5105675;27;20151;-40
2021/12/17 10:57:43;;;;;;;0.10;0.10;;;;;;;20.94;43.55;103583.94;5094054;28;20075;-43
2021/12/17 11:00:10;;;;;;;0.10;0.10;;;;;;;20.93;43.81;103590.56;5096294;28;20454;-42
2021/12/17 11:02:37;;;;;;;0.20;0.20;;;;;;;20.93;43.61;103585.00;5076116;28;20073;-43
2021/12/17 11:05:11;;;;;;;0.20;0.20;;;;;;;20.93;43.93;103573.94;5109542;27;20741;-47
2021/12/17 11:07:38;;;;;;;0.20;0.20;;;;;;;20.91;43.65;103579.72;5095147;27;20051;-41
2021/12/17 11:10:05;;;;;;;0.10;0.10;;;;;;;20.90;43.81;103575.25;5087409;27;20043;-44
2021/12/17 11:12:40;;;;;;;0.20;0.20;;;;;;;20.90;43.91;103572.50;5089979;28;20050;-41
2021/12/17 11:15:24;;;;;;;0.10;0.10;;;;;;;20.90;43.77;103571.66;5109558;28;20594;-43
2021/12/17 11:17:53;;;;;;;0.20;0.20;;;;;;;20.89;43.66;103570.78;5093126;28;20047;-43
2021/12/17 11:20:23;;;;;;;0.20;0.20;;;;;;;20.89;43.88;103573.53;5100103;28;20058;-44
2021/12/17 11:22:51;;;;;;;0.10;0.10;;;;;;;20.88;44.01;103574.63;5095012;27;20066;-42
2021/12/17 11:25:17;;;;;;;0.20;0.20;;;;;;;20.87;43.71;103575.72;5094873;28;20047;-44
2021/12/17 11:27:43;;;;;;;0.10;0.10;;;;;;;20.86;43.77;103571.25;5098604;28;20466;-41
2021/12/17 11:30:13;;;;;;;0.10;0.10;;;;;;;20.86;43.57;103573.19;5115810;27;20084;-45
2021/12/17 11:32:42;;;;;;;0.20;0.20;;;;;;;20.86;43.81;103579.56;5096170;28;20043;-41
2021/12/17 11:35:08;;;;;;;0.20;0.20;;;;;;;20.86;43.83;103584.25;5096207;28;20070;-44
2021/12/17 11:37:34;;;;;;;0.10;0.10;;;;;;;20.84;43.86;103584.47;5076686;28;20055;-43
2021/12/17 11:40:07;;;;;;;0.20;0.20;;;;;;;20.85;43.79;103585.31;5084999;28;20035;-42
2021/12/17 11:45:34;;;;;;;0.10;0.10;;;;;;;20.83;43.86;103570.84;5154026;27;20127;-42
2021/12/17 11:48:19;;;;;;;0.20;0.20;;;;;;;20.83;43.64;103573.63;5141181;27;20059;-44
2021/12/17 11:50:47;;;;;;;0.20;0.20;;;;;;;20.83;43.89;103573.63;5147135;27;20600;-41
2021/12/17 11:53:24;;;;;;;0.10;0.10;;;;;;;20.80;43.80;103573.00;5142794;27;20047;-46
2021/12/17 11:55:59;;;;;;;0.20;0.20;;;;;;;20.76;45.67;103580.06;5123128;27;20249;-40
2021/12/17 11:58:48;;;;;;;0.20;0.20;;;;;;;20.83;44.89;103587.47;5129797;27;20445;-39
2021/12/17 12:01:57;;;;;;;0.10;0.10;;;;;;;20.82;44.76;103583.00;5135367;27;20469;-40
2021/12/17 12:05:03;;;;;;;0.20;0.20;;;;;;;20.82;44.64;103571.94;5124021;27;20392;-38
2021/12/17 12:10:21;;;;;;;0.20;0.20;;;;;;;20.82;44.62;103566.41;5150439;27;20221;-38
2021/12/17 12:18:06;;;;;;;0.20;0.20;;;;;;;20.82;44.33;103580.25;5154267;27;20225;-39
2021/12/17 12:20:50;;;;;;;0.10;0.10;;;;;;;20.81;44.62;103565.53;5154243;27;20126;-39
2021/12/17 12:29:00;;;;;;;0.10;0.10;;;;;;;20.82;44.39;103566.41;5156899;27;20459;-38
2021/12/17 12:31:37;;;;;;;0.10;0.10;;;;;;;20.77;45.33;103565.16;5135171;27;20359;-37
2021/12/17 12:37:01;;;;;;;0.10;0.10;;;;;;;20.87;44.83;103556.31;5146956;27;20213;-36
2021/12/17 12:39:39;;;;;;;0.17;0.17;;;;;;;20.86;44.64;103562.94;5132699;27;20049;-36
2021/12/17 12:52:50;;;;;;;0.20;0.20;;;;;;;20.90;44.38;103558.63;5148442;27;20586;-36
2021/12/17 12:55:43;;;;;;;0.10;0.10;;;;;;;20.91;44.43;103556.72;5147483;27;20050;-38
2021/12/17 12:58:27;;;;;;;0.13;0.13;;;;;;;20.93;44.69;103557.31;5126432;27;20050;-36
2021/12/17 13:00:57;;;;;;;0.20;0.20;;;;;;;20.92;44.44;103545.38;5133402;27;20536;-36
2021/12/17 13:03:27;;;;;;;0.20;0.20;;;;;;;20.93;44.22;103546.22;5150710;27;20138;-36
2021/12/17 13:05:54;;;;;;;0.10;0.10;;;;;;;20.93;44.24;103543.47;5150676;27;20042;-37
2021/12/17 13:08:21;;;;;;;0.10;0.10;;;;;;;20.93;44.38;103547.06;5145856;27;20050;-39
2021/12/17 13:10:50;;;;;;;0.10;0.10;;;;;;;20.94;44.18;103551.56;5149985;27;20038;-46
2021/12/17 13:13:28;;;;;;;0.10;0.10;;;;;;;20.94;44.24;103559.88;5129278;27;20421;-43
2021/12/17 13:26:58;;;;;;;0.20;0.20;;;;;;;20.95;44.11;103549.63;5154783;27;20213;-36
2021/12/17 13:29:29;;;;;;;0.10;0.10;;;;;;;20.95;44.05;103549.63;5144431;27;20381;-38
2021/12/17 13:32:02;;;;;;;0.10;0.10;;;;;;;20.96;44.08;103545.78;5129657;27;20050;-37
2021/12/17 13:34:52;;;;;;;0.10;0.10;;;;;;;20.97;43.85;103539.16;5145628;27;20452;-42
2021/12/17 13:37:28;;;;;;;0.10;0.10;;;;;;;20.95;44.03;103531.09;5122028;27;20042;-41
2021/12/17 13:39:59;;;;;;;0.10;0.10;;;;;;;20.95;44.13;103535.78;5127028;27;20118;-41
2021/12/17 13:42:28;;;;;;;0.10;0.10;;;;;;;20.96;44.23;103523.63;5154459;27;20070;-39
2021/12/17 13:44:57;;;;;;;0.10;0.10;;;;;;;20.95;44.10;103525.56;5134897;27;20622;-39
2021/12/17 13:47:34;;;;;;;0.10;0.10;;;;;;;20.97;43.94;103515.06;5132011;27;20038;-40
2021/12/17 13:50:21;;;;;;;0.10;0.10;;;;;;;20.99;43.98;103507.38;5120080;27;20518;-38
2021/12/17 13:52:53;;;;;;;0.10;0.10;;;;;;;20.98;44.15;103510.38;5138161;27;20470;-41
2021/12/17 13:55:22;;;;;;;0.20;0.20;;;;;;;20.96;43.91;103510.63;5150170;27;20043;-42
2021/12/17 13:57:48;;;;;;;0.10;0.10;;;;;;;20.97;44.10;103525.31;5131526;27;20133;-38
2021/12/17 14:00:20;;;;;;;0.20;0.20;;;;;;;20.96;44.01;103516.16;5133417;27;20066;-39
2021/12/17 14:02:47;;;;;;;0.10;0.10;;;;;;;20.94;44.17;103515.56;5136932;27;20035;-37
2021/12/17 14:05:28;;;;;;;0.10;0.10;;;;;;;20.93;43.91;103497.22;5156124;27;20121;-43
2021/12/17 14:07:56;;;;;;;0.10;0.10;;;;;;;20.93;43.95;103511.06;5132609;27;20057;-39
2021/12/17 14:10:27;;;;;;;0.10;0.10;;;;;;;20.93;43.77;103516.59;5152981;27;20469;-41
2021/12/17 14:12:52;;;;;;;0.10;0.10;;;;;;;20.92;44.05;103517.69;5130296;27;20071;-40
2021/12/17 14:15:40;;;;;;;0.20;0.20;;;;;;;20.92;44.07;103514.06;5134479;27;20055;-40
2021/12/17 14:18:08;;;;;;;0.10;0.10;;;;;;;20.92;44.08;103511.31;5113337;27;20047;-42
2021/12/17 14:20:43;;;;;;;0.10;0.10;;;;;;;20.91;44.18;103518.78;5118493;27;20070;-38
2021/12/17 14:23:14;;;;;;;0.20;0.20;;;;;;;20.90;43.95;103519.84;5134267;27;20046;-40
2021/12/17 14:25:44;;;;;;;0.10;0.10;;;;;;;20.90;43.94;103527.31;5123791;27;20053;-40
2021/12/17 14:28:16;;;;;;;0.10;0.10;;;;;;;20.89;43.93;103514.53;5106585;27;20075;-39
2021/12/17 14:30:48;;;;;;;0.10;0.10;;;;;;;20.89;44.29;103523.69;5134557;27;20442;-39
2021/12/17 14:33:17;;;;;;;0.15;0.15;;;;;;;20.86;44.09;103521.41;5133816;27;20035;-41
2021/12/17 14:35:50;;;;;;;0.20;0.20;;;;;;;20.87;44.04;103519.47;5116262;27;20500;-38
2021/12/17 14:38:18;;;;;;;0.10;0.10;;;;;;;20.86;44.15;103517.78;5121205;27;20107;-41
2021/12/17 14:40:53;;;;;;;0.10;0.10;;;;;;;20.86;44.23;103524.16;5121520;28;20039;-40